Aviation Digital Data Service (ADDS)

Output produced by METARs form (1447 UTC 23 January 2017)
found at http://aviationweather.gov/adds/metars/
 
KIAG 231134Z 2312/2412 07010G16KT 2SM BR OVC002 
     FM231400 08011KT 4SM BR VCSH OVC007 
     FM231500 08012KT P6SM VCSH OVC040 
     FM231700 08012G18KT 6SM -RA OVC025 
     FM240300 06012G21KT 2SM -SNPLRA OVC035 
     FM240500 06012G20KT 2SM -SN OVC012 
     FM240900 05010G18KT 2SM -SN OVC007